Time;durP1;ratioP1;P1;durP2;ratioP2;P2;SDS_P1;SDS_P2;PMS_P1;PMS_P2;Temp;Humidity;BMP_temperature;BMP_pressure;BME280_temperature;BME280_humidity;BME280_pressure;Samples;Min_cycle;Max_cycle;Signal;HPM_P1;HPM_P2
2023/04/15 00:02:13;;;;;;;3.58;1.33;;;8.10;99.90;;;;;;5002613;28;20119;-81
2023/04/15 00:04:38;;;;;;;3.95;2.08;;;8.10;99.90;;;;;;5001791;28;20497;-85
2023/04/15 00:07:04;;;;;;;1.60;1.42;;;8.10;99.90;;;;;;5002094;28;20266;-81
2023/04/15 00:09:30;;;;;;;1.25;1.13;;;8.10;99.90;;;;;;5000903;28;20078;-77
2023/04/15 00:11:56;;;;;;;1.40;1.20;;;8.10;99.90;;;;;;5002547;28;20507;-86
2023/04/15 00:14:22;;;;;;;2.47;1.77;;;8.00;99.90;;;;;;5001608;28;20050;-84
2023/04/15 00:16:54;;;;;;;1.98;1.55;;;8.00;99.90;;;;;;5000617;28;20045;-82
2023/04/15 00:19:19;;;;;;;4.05;1.52;;;8.00;99.90;;;;;;5001601;28;20092;-81
2023/04/15 00:21:45;;;;;;;4.30;2.03;;;8.00;99.90;;;;;;5000956;28;20053;-82
2023/04/15 00:24:11;;;;;;;2.05;1.65;;;8.00;99.90;;;;;;5002026;28;20033;-84
2023/04/15 00:26:37;;;;;;;3.20;2.40;;;8.00;99.90;;;;;;5000753;28;20493;-81
2023/04/15 00:29:03;;;;;;;3.38;1.38;;;8.00;99.90;;;;;;5002543;28;20060;-81
2023/04/15 00:31:30;;;;;;;5.00;1.55;;;8.00;99.90;;;;;;4983281;28;20556;-85
2023/04/15 00:33:56;;;;;;;6.72;3.33;;;8.00;99.90;;;;;;5000844;28;20432;-85
2023/04/15 00:36:22;;;;;;;3.03;1.60;;;7.90;99.90;;;;;;5002716;28;20137;-77
2023/04/15 00:38:47;;;;;;;3.15;1.95;;;7.90;99.90;;;;;;5002208;28;20046;-84
2023/04/15 00:41:13;;;;;;;3.17;2.00;;;7.90;99.90;;;;;;5001241;28;20551;-84
2023/04/15 00:43:39;;;;;;;3.58;1.40;;;8.00;99.90;;;;;;5001671;28;20046;-82
2023/04/15 00:46:05;;;;;;;4.97;2.88;;;7.90;99.90;;;;;;4999867;28;20049;-81
2023/04/15 00:48:31;;;;;;;3.47;1.45;;;7.90;99.90;;;;;;4986616;28;20122;-84
2023/04/15 00:50:57;;;;;;;1.92;1.48;;;7.90;99.90;;;;;;4982155;28;20133;-84
2023/04/15 00:53:22;;;;;;;3.35;2.53;;;7.80;99.90;;;;;;4997593;28;20047;-81
2023/04/15 00:55:48;;;;;;;2.42;1.42;;;7.80;99.90;;;;;;4985069;28;20093;-84
2023/04/15 00:58:15;;;;;;;3.75;2.15;;;7.80;99.90;;;;;;4984414;28;20460;-85
2023/04/15 01:00:42;;;;;;;1.80;1.70;;;7.80;99.90;;;;;;4984392;28;20053;-79
2023/04/15 01:03:08;;;;;;;4.85;2.10;;;7.80;99.90;;;;;;5001113;28;20065;-81
2023/04/15 01:05:35;;;;;;;3.22;2.05;;;7.80;99.90;;;;;;5078296;22;20495;-84
2023/04/15 01:08:01;;;;;;;3.58;2.15;;;7.80;99.90;;;;;;5005110;28;20060;-85
2023/04/15 01:10:27;;;;;;;2.58;2.35;;;7.80;99.90;;;;;;5005511;28;20057;-79
2023/04/15 01:12:53;;;;;;;4.32;1.98;;;7.80;99.90;;;;;;5006127;28;20439;-83
2023/04/15 01:15:20;;;;;;;3.67;1.70;;;7.70;99.90;;;;;;5004154;28;20112;-85
2023/04/15 01:17:46;;;;;;;4.10;2.90;;;7.80;99.90;;;;;;5003472;28;20133;-85
2023/04/15 01:20:14;;;;;;;4.22;2.30;;;7.70;99.90;;;;;;5005145;28;20559;-81
2023/04/15 01:22:40;;;;;;;2.58;2.30;;;7.70;99.90;;;;;;5005266;28;20128;-79
2023/04/15 01:25:10;;;;;;;1.88;1.48;;;7.70;99.90;;;;;;5005361;28;20456;-85
2023/04/15 01:27:39;;;;;;;2.72;2.53;;;7.70;99.90;;;;;;5003704;28;20057;-85
2023/04/15 01:30:06;;;;;;;1.98;1.88;;;7.70;99.90;;;;;;5002658;28;20137;-85
2023/04/15 01:32:32;;;;;;;3.72;2.83;;;7.70;99.90;;;;;;5003242;28;20046;-84
2023/04/15 01:34:58;;;;;;;3.33;2.50;;;7.70;99.90;;;;;;5004861;28;20072;-80
2023/04/15 01:37:25;;;;;;;3.80;2.72;;;7.60;99.90;;;;;;5004243;28;20088;-85
2023/04/15 01:39:51;;;;;;;3.60;3.30;;;7.70;99.90;;;;;;5003617;28;20133;-82
2023/04/15 01:42:16;;;;;;;6.63;3.15;;;7.60;99.90;;;;;;5005090;28;20049;-83
2023/04/15 01:44:42;;;;;;;4.30;2.80;;;7.60;99.90;;;;;;5002198;28;20041;-83
2023/04/15 01:47:07;;;;;;;4.50;2.88;;;7.60;99.90;;;;;;5003603;28;20050;-85
2023/04/15 01:49:33;;;;;;;3.83;2.58;;;7.60;99.90;;;;;;5002570;28;20229;-84
2023/04/15 01:51:59;;;;;;;3.33;2.72;;;7.60;99.90;;;;;;5004647;28;20072;-82
2023/04/15 01:54:26;;;;;;;3.63;3.33;;;7.60;99.90;;;;;;5004424;28;20488;-81
2023/04/15 01:56:52;;;;;;;3.47;3.08;;;7.60;99.90;;;;;;5004862;28;20048;-79
2023/04/15 01:59:17;;;;;;;2.22;2.05;;;7.50;99.90;;;;;;5018077;28;20254;-79
2023/04/15 02:01:44;;;;;;;4.20;2.65;;;7.50;99.90;;;;;;5004663;28;20503;-82
2023/04/15 02:04:15;;;;;;;3.50;3.08;;;7.50;99.90;;;;;;5019636;28;20112;-84
2023/04/15 02:06:45;;;;;;;6.47;3.38;;;7.50;99.90;;;;;;5003083;28;20057;-85
2023/04/15 02:09:11;;;;;;;3.53;2.90;;;7.50;99.90;;;;;;5019582;28;20488;-84
2023/04/15 02:11:38;;;;;;;4.28;1.98;;;7.50;99.90;;;;;;5003944;28;20459;-85
2023/04/15 02:14:04;;;;;;;6.97;2.75;;;7.50;99.90;;;;;;5003132;28;20437;-82
2023/04/15 02:16:30;;;;;;;5.30;4.90;;;7.40;99.90;;;;;;5004237;28;20436;-80
2023/04/15 02:18:56;;;;;;;4.85;2.97;;;7.40;99.90;;;;;;5004017;28;20042;-85
2023/04/15 02:21:22;;;;;;;3.83;2.42;;;7.40;99.90;;;;;;5004496;28;20219;-82
2023/04/15 02:23:48;;;;;;;2.13;2.00;;;7.40;99.90;;;;;;5018777;28;20052;-82
2023/04/15 02:26:13;;;;;;;4.22;3.08;;;7.40;99.90;;;;;;5003686;28;20129;-85
2023/04/15 02:28:39;;;;;;;5.28;3.53;;;7.40;99.90;;;;;;5018592;28;20061;-84
2023/04/15 02:31:08;;;;;;;4.72;3.20;;;7.30;99.90;;;;;;5002269;28;20564;-83
2023/04/15 02:33:34;;;;;;;6.53;3.78;;;7.40;99.90;;;;;;5018822;28;20081;-81
2023/04/15 02:36:00;;;;;;;6.97;4.85;;;7.30;99.90;;;;;;5004064;28;20452;-85
2023/04/15 02:38:26;;;;;;;5.70;2.40;;;7.30;99.90;;;;;;5003022;28;20041;-83
2023/04/15 02:40:51;;;;;;;4.20;3.85;;;7.30;99.90;;;;;;5003768;28;20087;-81
2023/04/15 02:43:17;;;;;;;5.50;4.68;;;7.30;99.90;;;;;;5002567;28;20042;-86
2023/04/15 02:45:44;;;;;;;10.75;3.72;;;7.30;99.90;;;;;;5017445;28;20045;-84
2023/04/15 02:48:10;;;;;;;6.47;4.50;;;7.20;99.90;;;;;;5018061;28;20514;-80
2023/04/15 02:50:38;;;;;;;10.63;4.40;;;7.20;99.90;;;;;;5003394;28;20050;-83
2023/04/15 02:53:04;;;;;;;6.53;3.03;;;7.30;99.90;;;;;;5004282;28;20105;-83
2023/04/15 02:55:30;;;;;;;4.28;3.70;;;7.20;99.90;;;;;;5002969;28;20484;-84
2023/04/15 02:57:58;;;;;;;4.55;3.28;;;7.20;99.90;;;;;;5003246;28;20125;-83
2023/04/15 03:00:24;;;;;;;6.90;4.50;;;7.20;99.90;;;;;;5002870;28;20049;-82
2023/04/15 03:02:55;;;;;;;2.42;2.15;;;7.20;99.90;;;;;;5002308;28;20045;-84
2023/04/15 03:05:24;;;;;;;2.53;2.33;;;7.20;99.90;;;;;;5003659;28;20147;-85
2023/04/15 03:07:50;;;;;;;5.10;4.35;;;7.20;99.90;;;;;;5018746;28;20046;-85
2023/04/15 03:10:16;;;;;;;4.10;3.53;;;7.20;99.90;;;;;;5003114;28;20069;-86
2023/04/15 03:12:41;;;;;;;7.72;2.88;;;7.20;99.90;;;;;;5018086;28;20104;-81
2023/04/15 03:15:08;;;;;;;2.85;2.65;;;7.20;99.90;;;;;;5002313;28;20068;-79
2023/04/15 03:17:33;;;;;;;6.25;3.05;;;7.20;99.90;;;;;;5002538;28;20049;-86
2023/04/15 03:20:02;;;;;;;3.80;2.70;;;7.20;99.90;;;;;;5017933;28;20042;-81
2023/04/15 03:22:27;;;;;;;3.97;2.90;;;7.20;99.90;;;;;;5001420;28;20120;-81
2023/04/15 03:24:53;;;;;;;5.10;3.10;;;7.10;99.90;;;;;;5018500;28;20516;-85
2023/04/15 03:27:18;;;;;;;4.80;3.47;;;7.10;99.90;;;;;;5002922;28;20046;-85
2023/04/15 03:29:44;;;;;;;3.80;3.40;;;7.10;99.90;;;;;;5016790;28;20241;-77
2023/04/15 03:32:11;;;;;;;3.80;2.85;;;7.10;99.90;;;;;;5003111;28;20054;-81
2023/04/15 03:34:36;;;;;;;4.50;2.60;;;7.10;99.90;;;;;;5002649;28;20046;-85
2023/04/15 03:37:02;;;;;;;6.03;4.32;;;7.10;99.90;;;;;;5002330;28;20061;-84
2023/04/15 03:39:27;;;;;;;5.25;3.35;;;7.10;99.90;;;;;;5002586;28;20052;-82
2023/04/15 03:41:53;;;;;;;6.47;3.13;;;7.10;99.90;;;;;;5003247;28;20080;-85
2023/04/15 03:44:18;;;;;;;7.20;4.95;;;7.10;99.90;;;;;;5001399;28;20079;-81
2023/04/15 03:46:44;;;;;;;4.68;3.38;;;7.10;99.90;;;;;;5002442;28;20042;-82
2023/04/15 03:49:10;;;;;;;4.45;3.65;;;7.00;99.90;;;;;;5003056;28;20125;-83
2023/04/15 03:51:35;;;;;;;3.88;3.33;;;7.10;99.90;;;;;;5002118;28;20112;-84
2023/04/15 03:54:01;;;;;;;5.10;3.53;;;7.00;99.90;;;;;;5002133;28;20384;-79
2023/04/15 03:56:26;;;;;;;9.20;3.15;;;7.00;99.90;;;;;;5002833;28;20121;-83
2023/04/15 03:58:52;;;;;;;5.45;3.90;;;7.00;99.90;;;;;;5001875;28;20046;-83
2023/04/15 04:01:18;;;;;;;3.72;3.33;;;7.00;99.90;;;;;;5017820;28;20049;-81
2023/04/15 04:03:43;;;;;;;8.73;5.18;;;7.00;99.90;;;;;;5002457;28;20117;-80
2023/04/15 04:06:11;;;;;;;7.20;4.80;;;7.00;99.90;;;;;;5002147;28;20100;-84
2023/04/15 04:08:37;;;;;;;5.22;4.50;;;7.00;99.90;;;;;;5001815;28;20038;-81
2023/04/15 04:11:02;;;;;;;6.05;4.55;;;6.90;99.90;;;;;;5002606;28;20073;-79
2023/04/15 04:13:28;;;;;;;5.13;4.13;;;7.00;99.90;;;;;;5002218;28;20392;-83
2023/04/15 04:15:53;;;;;;;5.05;4.55;;;6.90;99.90;;;;;;5017318;28;20084;-84
2023/04/15 04:18:19;;;;;;;5.38;3.90;;;6.90;99.90;;;;;;5002420;28;20044;-81
2023/04/15 04:20:45;;;;;;;5.47;3.85;;;6.90;99.90;;;;;;5017631;28;20100;-82
2023/04/15 04:23:10;;;;;;;4.63;4.13;;;6.90;99.90;;;;;;5001162;28;20038;-84
2023/04/15 04:25:36;;;;;;;5.95;4.53;;;6.90;99.90;;;;;;5001617;28;20045;-84
2023/04/15 04:28:02;;;;;;;3.85;3.22;;;6.90;99.90;;;;;;5002354;28;20041;-81
2023/04/15 04:30:28;;;;;;;3.75;3.40;;;6.80;99.90;;;;;;5003647;28;20045;-84
2023/04/15 04:32:54;;;;;;;5.82;4.25;;;6.80;99.90;;;;;;5021762;28;20067;-84
2023/04/15 04:35:20;;;;;;;5.72;3.65;;;6.80;99.90;;;;;;5021279;28;20042;-79
2023/04/15 04:37:46;;;;;;;5.82;4.85;;;6.80;99.90;;;;;;5005963;28;20510;-82
2023/04/15 04:40:12;;;;;;;4.47;4.07;;;6.80;99.90;;;;;;5021039;28;20121;-85
2023/04/15 04:42:39;;;;;;;5.25;4.35;;;6.80;99.90;;;;;;5005564;28;20141;-84
2023/04/15 04:45:05;;;;;;;8.57;5.00;;;6.80;99.90;;;;;;5019660;28;20046;-79
2023/04/15 04:47:31;;;;;;;4.07;3.75;;;6.80;99.90;;;;;;5006154;28;20042;-81
2023/04/15 04:49:56;;;;;;;8.50;5.15;;;6.80;99.90;;;;;;5005722;28;20116;-84
2023/04/15 04:52:22;;;;;;;6.80;5.18;;;6.80;99.90;;;;;;5005647;28;20233;-82
2023/04/15 04:54:47;;;;;;;4.65;4.05;;;6.80;99.90;;;;;;5005936;28;20563;-79
2023/04/15 04:57:13;;;;;;;3.65;3.30;;;6.80;99.90;;;;;;5020674;28;20064;-85
2023/04/15 04:59:39;;;;;;;4.47;3.42;;;6.80;99.90;;;;;;5019066;28;20149;-81
2023/04/15 05:02:05;;;;;;;6.28;3.50;;;6.80;99.90;;;;;;5004603;28;20041;-80
2023/04/15 05:04:30;;;;;;;5.45;4.95;;;6.80;99.90;;;;;;5005060;28;20061;-84
2023/04/15 05:06:57;;;;;;;6.55;4.45;;;6.80;99.90;;;;;;5004141;28;20046;-84
2023/04/15 05:09:22;;;;;;;5.18;3.65;;;6.80;99.90;;;;;;5006102;28;20404;-81
2023/04/15 05:11:48;;;;;;;4.25;3.95;;;6.70;99.90;;;;;;5004057;28;20038;-82
2023/04/15 05:14:13;;;;;;;6.50;4.93;;;6.70;99.90;;;;;;5019106;28;20193;-81
2023/04/15 05:16:39;;;;;;;4.60;4.00;;;6.80;99.90;;;;;;5019954;28;20045;-81
2023/04/15 05:19:05;;;;;;;4.60;4.22;;;6.80;99.90;;;;;;5005816;28;20050;-82
2023/04/15 05:21:30;;;;;;;6.30;4.85;;;6.70;99.90;;;;;;5004707;28;20045;-81
2023/04/15 05:23:56;;;;;;;7.63;4.40;;;6.70;99.90;;;;;;5005114;28;20049;-82
2023/04/15 05:26:23;;;;;;;4.88;4.20;;;6.70;99.90;;;;;;5005572;28;20506;-81
2023/04/15 05:28:49;;;;;;;4.03;3.50;;;6.80;99.90;;;;;;5003935;28;20093;-84
2023/04/15 05:31:15;;;;;;;4.55;3.65;;;6.80;99.90;;;;;;5020298;28;20616;-84
2023/04/15 05:33:40;;;;;;;5.30;4.80;;;6.80;99.90;;;;;;5004676;28;20044;-81
2023/04/15 05:36:06;;;;;;;5.95;4.15;;;6.80;99.90;;;;;;5020173;28;20046;-82
2023/04/15 05:38:32;;;;;;;10.75;5.22;;;6.80;99.90;;;;;;5019742;28;20041;-76
2023/04/15 05:40:57;;;;;;;3.80;3.40;;;6.80;99.90;;;;;;5004504;28;20069;-83
2023/04/15 05:43:23;;;;;;;5.97;3.58;;;6.80;99.90;;;;;;5019595;28;20056;-82
2023/04/15 05:45:49;;;;;;;3.80;3.35;;;6.90;99.90;;;;;;5019515;28;20042;-84
2023/04/15 05:48:14;;;;;;;5.72;4.68;;;6.80;99.90;;;;;;5019552;28;20054;-84
2023/04/15 05:50:41;;;;;;;4.10;3.70;;;6.90;99.90;;;;;;5019221;28;20429;-80
2023/04/15 05:53:07;;;;;;;3.72;3.42;;;6.90;99.90;;;;;;5004149;28;20434;-79
2023/04/15 05:55:33;;;;;;;5.30;4.82;;;6.90;99.90;;;;;;5004187;28;20069;-84
2023/04/15 05:57:58;;;;;;;6.30;4.13;;;6.90;99.90;;;;;;5003936;28;20042;-83
2023/04/15 06:00:24;;;;;;;5.85;3.40;;;6.90;99.90;;;;;;5004078;28;20046;-81
2023/04/15 06:02:51;;;;;;;8.60;3.28;;;6.90;99.90;;;;;;5003631;28;20041;-84
2023/04/15 06:05:17;;;;;;;4.15;3.78;;;6.90;99.90;;;;;;5003526;28;20046;-84
2023/04/15 06:07:42;;;;;;;5.80;2.80;;;6.90;99.90;;;;;;5002700;28;20072;-81
2023/04/15 06:10:09;;;;;;;8.85;4.22;;;7.00;99.90;;;;;;5003574;28;20096;-82
2023/04/15 06:12:35;;;;;;;4.55;3.95;;;7.00;99.90;;;;;;5018379;28;20476;-84
2023/04/15 06:15:01;;;;;;;4.40;3.53;;;7.00;99.90;;;;;;5002999;28;20109;-81
2023/04/15 06:17:26;;;;;;;4.50;2.50;;;7.00;99.90;;;;;;5004218;28;20041;-81
2023/04/15 06:19:55;;;;;;;3.58;2.20;;;7.10;99.90;;;;;;5004258;28;20042;-85
2023/04/15 06:22:22;;;;;;;9.52;3.85;;;7.10;99.90;;;;;;5019357;28;20038;-84
2023/04/15 06:24:49;;;;;;;2.92;2.65;;;7.10;99.90;;;;;;5003237;28;20042;-81
2023/04/15 06:27:15;;;;;;;5.82;4.90;;;7.20;99.90;;;;;;5003581;28;20345;-80
2023/04/15 06:29:41;;;;;;;3.47;3.17;;;7.20;99.90;;;;;;5003322;28;20042;-78
2023/04/15 06:32:07;;;;;;;3.78;3.47;;;7.30;99.90;;;;;;5003513;28;20472;-84
2023/04/15 06:34:32;;;;;;;5.00;3.50;;;7.30;99.90;;;;;;5003250;28;20053;-79
2023/04/15 06:36:58;;;;;;;4.22;3.88;;;7.30;99.90;;;;;;5002708;28;20092;-83
2023/04/15 06:39:23;;;;;;;4.35;2.92;;;7.40;99.90;;;;;;5004164;28;20408;-84
2023/04/15 06:41:49;;;;;;;5.50;3.58;;;7.40;99.90;;;;;;5017889;28;20045;-79
2023/04/15 06:44:15;;;;;;;4.32;2.92;;;7.50;99.90;;;;;;5018105;28;20463;-80
2023/04/15 06:46:40;;;;;;;5.07;3.28;;;7.50;99.90;;;;;;5018379;28;20046;-83
2023/04/15 06:49:06;;;;;;;4.15;3.42;;;7.50;99.90;;;;;;5002921;28;20574;-82
2023/04/15 06:51:34;;;;;;;4.75;3.60;;;7.50;99.90;;;;;;5003184;28;20523;-83
2023/04/15 06:54:01;;;;;;;4.95;4.50;;;7.60;99.90;;;;;;5018867;28;20045;-82
2023/04/15 06:56:27;;;;;;;6.00;4.50;;;7.70;99.90;;;;;;5003201;28;20038;-84
2023/04/15 06:58:52;;;;;;;7.78;4.32;;;7.70;99.90;;;;;;5018034;28;20138;-82
2023/04/15 07:01:18;;;;;;;4.38;3.35;;;7.70;99.90;;;;;;5018818;28;20087;-82
2023/04/15 07:03:45;;;;;;;4.30;3.63;;;7.70;99.90;;;;;;5002933;28;20042;-85
2023/04/15 07:06:10;;;;;;;6.22;3.80;;;7.80;99.90;;;;;;5001603;28;20089;-85
2023/04/15 07:08:36;;;;;;;3.25;2.95;;;7.80;99.90;;;;;;5017949;28;20041;-81
2023/04/15 07:11:02;;;;;;;5.82;2.78;;;7.80;99.90;;;;;;5003315;28;20041;-82
2023/04/15 07:13:30;;;;;;;4.10;3.70;;;7.90;99.90;;;;;;5000266;28;20034;-82
2023/04/15 07:15:56;;;;;;;8.98;4.18;;;8.00;99.90;;;;;;5003035;28;20046;-84
2023/04/15 07:18:21;;;;;;;4.20;3.75;;;8.00;99.90;;;;;;5018237;28;20428;-81
2023/04/15 07:20:47;;;;;;;4.82;3.25;;;8.00;99.90;;;;;;5003018;28;20385;-77
2023/04/15 07:23:13;;;;;;;3.83;2.88;;;8.10;99.90;;;;;;5001506;28;20049;-83
2023/04/15 07:25:38;;;;;;;5.60;3.80;;;8.10;99.90;;;;;;5002161;28;20041;-82
2023/04/15 07:28:04;;;;;;;7.32;2.92;;;8.20;99.90;;;;;;5002439;28;20405;-78
2023/04/15 07:30:30;;;;;;;5.43;3.50;;;8.20;99.90;;;;;;5002785;28;20049;-84
2023/04/15 07:32:57;;;;;;;2.85;2.42;;;8.20;99.90;;;;;;5002560;28;20089;-81
2023/04/15 07:35:24;;;;;;;3.78;3.08;;;8.30;99.90;;;;;;5002023;28;20088;-81
2023/04/15 07:37:50;;;;;;;3.78;3.10;;;8.30;99.90;;;;;;5002055;28;20041;-84
2023/04/15 07:40:15;;;;;;;3.65;2.60;;;8.40;99.90;;;;;;5017894;28;20127;-84
2023/04/15 07:42:41;;;;;;;3.25;2.30;;;8.50;99.90;;;;;;5002400;28;20079;-81
2023/04/15 07:45:08;;;;;;;3.00;2.47;;;8.50;99.90;;;;;;5001824;28;20493;-83
2023/04/15 07:47:33;;;;;;;2.83;1.88;;;8.60;99.90;;;;;;5017219;28;20560;-85
2023/04/15 07:49:59;;;;;;;3.95;1.83;;;8.60;99.90;;;;;;5017866;28;20129;-83
2023/04/15 07:52:25;;;;;;;3.40;2.22;;;8.70;99.90;;;;;;5017708;28;20504;-80
2023/04/15 07:54:50;;;;;;;1.80;1.55;;;8.80;99.90;;;;;;5003210;28;20034;-85
2023/04/15 07:57:16;;;;;;;1.83;1.73;;;8.80;99.90;;;;;;5017672;28;20042;-84
2023/04/15 07:59:42;;;;;;;4.18;2.70;;;8.80;99.90;;;;;;5016184;28;20046;-80
2023/04/15 08:02:08;;;;;;;5.63;2.00;;;8.80;99.90;;;;;;5017911;28;20053;-85
2023/04/15 08:04:34;;;;;;;6.18;2.47;;;8.80;99.90;;;;;;5004770;28;20054;-83
2023/04/15 08:06:59;;;;;;;3.30;1.90;;;8.80;99.90;;;;;;5006619;28;20045;-81
2023/04/15 08:09:26;;;;;;;3.28;2.20;;;8.90;99.90;;;;;;5021813;28;20050;-82
2023/04/15 08:11:52;;;;;;;4.60;1.90;;;8.80;99.90;;;;;;5006957;28;20149;-85
2023/04/15 08:14:17;;;;;;;5.07;1.55;;;8.80;99.90;;;;;;5005255;28;20037;-84
2023/04/15 08:16:43;;;;;;;2.60;1.75;;;8.80;99.90;;;;;;5006147;28;20042;-79
2023/04/15 08:19:08;;;;;;;1.63;1.15;;;8.90;99.90;;;;;;5021699;28;20112;-85
2023/04/15 08:21:35;;;;;;;2.72;2.08;;;8.90;99.90;;;;;;5021178;28;20053;-84
2023/04/15 08:24:02;;;;;;;3.05;2.42;;;8.90;99.90;;;;;;5005978;28;20049;-82
2023/04/15 08:26:27;;;;;;;6.75;1.48;;;8.90;99.90;;;;;;5021352;28;20517;-80
2023/04/15 08:28:53;;;;;;;2.17;1.98;;;8.90;99.90;;;;;;5005431;28;20045;-83
2023/04/15 08:31:19;;;;;;;2.08;1.13;;;8.90;99.90;;;;;;5005577;28;20088;-83
2023/04/15 08:33:45;;;;;;;3.85;2.08;;;8.90;99.90;;;;;;5021354;28;20069;-82
2023/04/15 08:36:11;;;;;;;1.45;1.10;;;8.90;99.90;;;;;;5006786;28;20042;-86
2023/04/15 08:38:36;;;;;;;3.45;1.80;;;8.90;99.90;;;;;;5005210;28;20046;-80
2023/04/15 08:41:21;;;;;;;1.83;1.30;;;8.90;99.90;;;;;;5006121;28;20053;-79
2023/04/15 08:43:56;;;;;;;1.33;1.05;;;9.00;99.90;;;;;;5003461;28;20038;-79
2023/04/15 08:46:22;;;;;;;1.52;1.33;;;9.10;99.90;;;;;;5021063;28;20045;-81
2023/04/15 08:48:48;;;;;;;3.08;1.40;;;9.10;99.90;;;;;;5005757;28;20042;-80
2023/04/15 08:51:17;;;;;;;1.65;1.55;;;9.00;99.90;;;;;;5004516;28;20100;-85
2023/04/15 08:53:45;;;;;;;3.72;1.70;;;9.10;99.90;;;;;;5020431;28;20046;-85
2023/04/15 08:56:13;;;;;;;2.17;1.73;;;9.10;99.90;;;;;;5005166;28;20089;-77
2023/04/15 08:58:38;;;;;;;4.45;1.85;;;9.10;99.90;;;;;;5019308;28;20103;-79
2023/04/15 09:01:04;;;;;;;2.58;1.90;;;9.10;99.90;;;;;;5020905;28;20504;-82
2023/04/15 09:03:30;;;;;;;1.77;1.60;;;9.10;99.90;;;;;;5005532;28;20515;-84
2023/04/15 09:05:57;;;;;;;4.28;1.80;;;9.10;99.90;;;;;;5005123;28;20058;-85
2023/04/15 09:08:22;;;;;;;2.45;1.10;;;9.10;99.90;;;;;;5006285;28;20041;-82
2023/04/15 09:10:48;;;;;;;3.00;1.20;;;9.10;99.90;;;;;;5020210;28;20069;-84
2023/04/15 09:13:14;;;;;;;1.92;1.25;;;9.00;99.90;;;;;;5019375;28;20416;-85
2023/04/15 09:15:39;;;;;;;2.65;1.40;;;9.10;99.90;;;;;;5002993;28;20042;-79
2023/04/15 09:18:05;;;;;;;2.20;1.27;;;9.10;99.90;;;;;;5005380;28;20129;-83
2023/04/15 09:20:39;;;;;;;2.90;1.88;;;9.10;99.90;;;;;;5005035;28;20037;-84
2023/04/15 09:23:14;;;;;;;2.55;1.33;;;9.10;99.90;;;;;;5005233;28;20045;-84
2023/04/15 09:25:41;;;;;;;4.63;2.13;;;9.10;99.90;;;;;;5004684;28;20477;-82
2023/04/15 09:28:07;;;;;;;3.05;2.50;;;9.10;99.90;;;;;;4987081;28;20050;-78
2023/04/15 09:30:34;;;;;;;0.75;0.70;;;9.10;99.90;;;;;;5004574;28;20124;-84
2023/04/15 09:33:01;;;;;;;1.30;0.88;;;9.10;99.90;;;;;;5004419;28;20069;-80
2023/04/15 09:35:27;;;;;;;1.80;0.80;;;9.20;99.90;;;;;;5004596;28;20385;-81
2023/04/15 09:38:01;;;;;;;1.05;0.70;;;9.20;99.90;;;;;;5005327;28;20492;-84
2023/04/15 09:40:32;;;;;;;1.77;0.90;;;9.20;99.90;;;;;;5005023;28;20073;-81
2023/04/15 09:42:58;;;;;;;0.88;0.70;;;9.30;99.90;;;;;;5019262;28;20281;-81
2023/04/15 09:45:24;;;;;;;1.67;0.77;;;9.30;99.90;;;;;;5003626;28;20496;-84
2023/04/15 09:47:50;;;;;;;2.80;1.20;;;9.30;99.90;;;;;;5004492;28;20052;-84
2023/04/15 09:50:16;;;;;;;1.90;1.00;;;9.40;99.90;;;;;;5004428;28;20065;-79
2023/04/15 09:52:43;;;;;;;0.68;0.63;;;9.40;99.90;;;;;;5003054;28;20061;-83
2023/04/15 09:55:10;;;;;;;2.05;1.55;;;9.30;99.90;;;;;;5004707;28;20088;-84
2023/04/15 09:57:37;;;;;;;2.15;0.93;;;9.40;99.90;;;;;;5003441;28;20092;-83
2023/04/15 10:00:05;;;;;;;2.55;1.45;;;9.40;99.90;;;;;;5002698;28;20046;-80
2023/04/15 10:02:31;;;;;;;2.70;0.77;;;9.40;99.90;;;;;;5004241;28;20073;-80
2023/04/15 10:04:57;;;;;;;0.90;0.77;;;9.40;99.90;;;;;;5004261;28;20144;-80
2023/04/15 10:07:23;;;;;;;0.80;0.70;;;9.50;99.90;;;;;;5004559;28;20096;-85
2023/04/15 10:09:48;;;;;;;2.28;0.75;;;9.50;99.90;;;;;;5019084;28;20540;-79
2023/04/15 10:12:16;;;;;;;1.83;0.60;;;9.50;99.90;;;;;;5004648;28;20049;-81
2023/04/15 10:14:43;;;;;;;2.33;1.10;;;9.60;99.90;;;;;;5002796;28;20439;-84
2023/04/15 10:17:11;;;;;;;2.63;0.80;;;9.70;99.90;;;;;;5004174;28;20092;-83
2023/04/15 10:19:37;;;;;;;1.50;0.60;;;9.70;99.90;;;;;;5003195;28;20069;-83
2023/04/15 10:22:03;;;;;;;2.67;0.73;;;9.70;99.90;;;;;;5019326;28;20038;-82
2023/04/15 10:24:31;;;;;;;0.70;0.65;;;9.70;99.90;;;;;;5003910;28;20042;-83
2023/04/15 10:26:58;;;;;;;2.22;0.70;;;9.70;99.90;;;;;;5002861;28;20124;-84
2023/04/15 10:29:26;;;;;;;1.00;0.70;;;9.70;99.90;;;;;;5018591;28;20042;-80
2023/04/15 10:31:53;;;;;;;0.80;0.80;;;9.70;99.90;;;;;;5019096;28;20526;-81
2023/04/15 10:34:20;;;;;;;0.50;0.50;;;9.70;99.90;;;;;;5003981;28;20052;-80
2023/04/15 10:36:46;;;;;;;0.75;0.73;;;9.70;99.90;;;;;;5003946;28;20053;-84
2023/04/15 10:39:33;;;;;;;5.43;0.80;;;9.70;99.90;;;;;;5003395;28;20046;-83
2023/04/15 10:42:10;;;;;;;0.75;0.75;;;9.70;99.90;;;;;;5019124;28;20045;-84
2023/04/15 10:44:37;;;;;;;1.10;0.52;;;9.70;99.90;;;;;;5017861;28;20049;-81
2023/04/15 10:47:11;;;;;;;2.20;0.63;;;9.70;99.90;;;;;;5003642;28;20047;-85
2023/04/15 10:49:44;;;;;;;1.10;0.68;;;9.70;99.90;;;;;;5018774;28;20042;-83
2023/04/15 10:52:09;;;;;;;1.02;0.63;;;9.70;99.90;;;;;;5003686;28;20050;-82
2023/04/15 10:54:37;;;;;;;0.30;0.30;;;9.70;99.90;;;;;;5003085;28;20041;-84
2023/04/15 10:57:03;;;;;;;0.47;0.47;;;9.70;99.90;;;;;;5003366;28;20103;-85
2023/04/15 10:59:35;;;;;;;0.82;0.82;;;9.70;99.90;;;;;;5001917;28;20049;-81
2023/04/15 11:02:03;;;;;;;1.17;0.75;;;9.70;99.90;;;;;;5018378;28;20127;-81
2023/04/15 11:04:54;;;;;;;0.50;0.43;;;9.70;99.90;;;;;;5017457;28;20054;-81
2023/04/15 11:07:49;;;;;;;0.82;0.60;;;9.80;99.90;;;;;;5018630;28;20120;-84
2023/04/15 11:10:24;;;;;;;0.77;0.70;;;9.80;99.90;;;;;;4976964;28;20061;-84
2023/04/15 11:12:57;;;;;;;0.70;0.70;;;9.80;99.90;;;;;;5001248;28;20070;-81
2023/04/15 11:15:33;;;;;;;1.25;0.60;;;9.80;99.90;;;;;;5003455;28;20128;-81
2023/04/15 11:18:07;;;;;;;1.45;0.70;;;9.80;99.90;;;;;;5001354;28;20568;-85
2023/04/15 11:20:33;;;;;;;1.65;0.73;;;9.80;99.90;;;;;;5017767;28;20042;-84
2023/04/15 11:22:59;;;;;;;1.40;1.10;;;9.70;99.90;;;;;;5003012;28;20140;-81
2023/04/15 11:25:26;;;;;;;3.60;0.93;;;9.70;99.90;;;;;;5018134;28;20519;-78
2023/04/15 11:27:53;;;;;;;0.57;0.57;;;9.70;99.90;;;;;;5018008;28;20038;-82
2023/04/15 11:30:21;;;;;;;0.85;0.85;;;9.70;99.90;;;;;;5002686;28;20049;-84
2023/04/15 11:32:48;;;;;;;0.70;0.57;;;9.70;99.90;;;;;;5002118;28;20038;-84
2023/04/15 11:35:15;;;;;;;1.45;0.73;;;9.70;99.90;;;;;;5017835;28;20099;-79
2023/04/15 11:37:40;;;;;;;1.25;0.60;;;9.70;99.90;;;;;;5002860;28;20045;-81
2023/04/15 11:40:07;;;;;;;0.82;0.82;;;9.70;99.90;;;;;;5017769;28;20053;-84
2023/04/15 11:42:33;;;;;;;1.92;0.60;;;9.70;99.90;;;;;;5001789;28;20037;-84
2023/04/15 11:45:09;;;;;;;0.80;0.80;;;9.60;99.90;;;;;;5002616;28;20034;-81
2023/04/15 11:47:36;;;;;;;0.35;0.35;;;9.60;99.90;;;;;;5002312;28;20038;-83
2023/04/15 11:50:13;;;;;;;1.90;0.60;;;9.60;99.90;;;;;;5002754;28;20077;-81
2023/04/15 11:52:39;;;;;;;1.10;0.60;;;9.70;99.90;;;;;;5017512;28;20049;-83
2023/04/15 11:55:07;;;;;;;2.45;1.45;;;9.60;99.90;;;;;;5002557;28;20044;-83
2023/04/15 11:57:34;;;;;;;0.50;0.50;;;9.70;99.90;;;;;;5016709;28;20141;-82
2023/04/15 11:59:59;;;;;;;0.73;0.70;;;9.70;99.90;;;;;;5002732;28;20053;-82
2023/04/15 12:02:31;;;;;;;0.68;0.57;;;9.70;99.90;;;;;;5017452;28;20042;-84
2023/04/15 12:05:08;;;;;;;0.50;0.50;;;9.70;99.90;;;;;;5002077;28;20481;-84
2023/04/15 12:07:53;;;;;;;3.25;1.02;;;9.70;99.90;;;;;;5002709;28;20088;-79
2023/04/15 12:10:19;;;;;;;1.08;0.90;;;9.70;99.90;;;;;;5001193;28;20049;-80
2023/04/15 12:12:48;;;;;;;0.40;0.40;;;9.70;99.90;;;;;;5016296;28;20132;-84
2023/04/15 12:15:14;;;;;;;4.60;1.10;;;9.70;99.90;;;;;;5017282;28;20042;-80
2023/04/15 12:17:40;;;;;;;1.65;0.80;;;9.70;99.90;;;;;;5017129;28;20288;-81
2023/04/15 12:20:06;;;;;;;1.95;0.60;;;9.60;99.90;;;;;;5002636;28;20045;-77
2023/04/15 12:22:36;;;;;;;0.82;0.80;;;9.60;99.90;;;;;;5002340;28;20096;-84
2023/04/15 12:25:02;;;;;;;0.52;0.52;;;9.60;99.90;;;;;;5000544;28;20103;-86
2023/04/15 12:27:28;;;;;;;1.38;1.13;;;9.60;99.90;;;;;;5016453;28;20544;-81
2023/04/15 12:30:04;;;;;;;0.73;0.50;;;9.60;99.90;;;;;;5002941;28;20177;-81
2023/04/15 12:32:33;;;;;;;6.90;0.65;;;9.50;99.90;;;;;;5017286;28;20120;-82
2023/04/15 12:34:59;;;;;;;1.83;0.88;;;9.50;99.90;;;;;;5017077;28;20045;-80
2023/04/15 12:37:25;;;;;;;3.28;0.70;;;9.50;99.90;;;;;;5002373;28;20088;-79
2023/04/15 12:39:51;;;;;;;2.25;0.73;;;9.50;99.90;;;;;;5002720;28;20088;-83
2023/04/15 12:42:17;;;;;;;2.85;0.60;;;9.50;99.90;;;;;;4999923;28;20326;-82
2023/04/15 12:44:43;;;;;;;2.40;0.70;;;9.50;99.90;;;;;;5001861;28;20057;-80
2023/04/15 12:47:10;;;;;;;2.13;0.82;;;9.40;99.90;;;;;;5017256;28;20046;-83
2023/04/15 12:49:36;;;;;;;2.67;0.65;;;9.40;99.90;;;;;;5001361;28;20042;-85
2023/04/15 12:52:03;;;;;;;0.50;0.50;;;9.30;99.90;;;;;;5003713;28;20050;-79
2023/04/15 12:54:29;;;;;;;0.65;0.50;;;9.30;99.90;;;;;;5020311;28;20045;-85
2023/04/15 12:56:56;;;;;;;5.60;2.83;;;9.30;99.90;;;;;;5020656;28;20057;-80